Las Cruces, NM (88001)

8:51 AM MST on December 03, 2016 (GMT -0700)
Las Cruces | | Change Station

Elev 4022 ft 32.33 °N, 106.76 °W | Updated 1 minute ago

Overcast
Overcast
39.5 °F
Feels Like 40 °F
N
3.0
Wind Variable Wind from NW
Gusts 3.0 mph

Today
High -- | Low -- °F
--% Chance of Precip.
Yesterday
High -- | Low -- °F
Precip. -- in
Pressure 29.99 in
Visibility 10.0 miles
Clouds Mostly Cloudy 2700 ft
Mostly Cloudy 3900 ft
Overcast 6000 ft
Windchill 40 °F
Dew Point 33 °F
Humidity 76%
Rainfall 0.02 in
Snow Depth Not available.
6:52 AM 5:01 PM
Waxing Crescent, 15% visible
METAR KLRU 031535Z AUTO 35015G23KT 10SM BKN027 BKN039 OVC060 03/00 A2999 RMK AO2 T00250000
Pressure 29.99 in
Visibility 10.0 miles
Clouds Mostly Cloudy 2700 ft
Mostly Cloudy 3900 ft
Overcast 6000 ft
Windchill 40 °F
Dew Point 33 °F
Humidity 76%
Rainfall 0.02 in
Snow Depth Not available.
6:52 AM 5:01 PM
Waxing Crescent, 15% visible
METAR KLRU 031535Z AUTO 35015G23KT 10SM BKN027 BKN039 OVC060 03/00 A2999 RMK AO2 T00250000

10-Day Weather Forecast

Almanac

Astronomy

Dec. 03, 2016 Rise Set
Actual Time
Civil Twilight
Nautical Twilight
Astronomical Twilight
Moon
Length of Visible Light
Length of Day
Tomorrow will be .
, % of the Moon is Illuminated

Today's Extremes

State Highs State Lows

Community

WunderPhotos

Upload Photos

1,955,427 photos uploaded!

WunderBlog® & News

Nearby

Air Quality

  Air Quality AQ Index Pollutant
Not available.

Snow Depth

Station Depth Elevation

Earthquake Activity

City Distance Mag. Time & Date
Minimum magnitude displayed is 2.5.

Coastal Water Temperatures

Place Temperature

Stations

Nearby Weather Stations

Station Location Temp. Windchill Dew Point Humidity Wind Precip. Elev Updated Type
                   

Watches & Warnings

There are currently no watches in effect.